Time;durP1;ratioP1;P1;durP2;ratioP2;P2;SDS_P1;SDS_P2;PMS_P1;PMS_P2;Temp;Humidity;BMP_temperature;BMP_pressure;BME280_temperature;BME280_humidity;BME280_pressure;Samples;Min_cycle;Max_cycle;Signal;HPM_P1;HPM_P2
2022/01/26 07:02:03;;;;;;;228.02;57.65;;;;;;;;;;5070057;23;20053;-83
2022/01/26 07:04:29;;;;;;;227.80;58.28;;;;;;;;;;4854903;29;20403;-83
2022/01/26 07:06:56;;;;;;;232.68;58.83;;;;;;;;;;4854939;29;20196;-82
2022/01/26 07:09:22;;;;;;;239.05;57.42;;;;;;;;;;4854574;29;20114;-83
2022/01/26 07:11:49;;;;;;;226.00;57.13;;;;;;;;;;4855576;29;20077;-82
2022/01/26 07:19:46;;;;;;;238.07;58.28;;;;;;;;;;4857631;29;20053;-82
2022/01/26 07:20:02;;;;;;;239.00;59.13;;;;;;;;;;4857717;29;20046;-82
2022/01/26 07:22:28;;;;;;;227.90;59.50;;;;;;;;;;4854387;29;20049;-83
2022/01/26 07:24:55;;;;;;;223.90;59.88;;;;;;;;;;4855133;29;20076;-83
2022/01/26 07:27:22;;;;;;;229.32;59.88;;;;;;;;;;4855147;29;20094;-83
2022/01/26 07:29:49;;;;;;;217.82;58.28;;;;;;;;;;4856146;29;20050;-83
2022/01/26 07:32:16;;;;;;;222.35;61.08;;;;;;;;;;4856568;29;20049;-83
2022/01/26 07:34:44;;;;;;;223.30;60.25;;;;;;;;;;4837613;29;20049;-83
2022/01/26 07:37:13;;;;;;;213.55;58.28;;;;;;;;;;4853442;29;20046;-83
2022/01/26 07:39:47;;;;;;;226.73;58.92;;;;;;;;;;4855113;29;20109;-83
2022/01/26 07:42:14;;;;;;;238.55;59.83;;;;;;;;;;4854232;29;20046;-83
2022/01/26 07:44:41;;;;;;;230.20;59.38;;;;;;;;;;4855141;29;20496;-83
2022/01/26 07:47:11;;;;;;;227.38;60.38;;;;;;;;;;4856571;29;20053;-83
2022/01/26 07:49:38;;;;;;;229.43;59.95;;;;;;;;;;4850222;29;20486;-83
2022/01/26 07:52:05;;;;;;;225.10;59.25;;;;;;;;;;4837136;29;20582;-82
2022/01/26 07:54:32;;;;;;;232.75;62.60;;;;;;;;;;4854125;29;20053;-83
2022/01/26 07:57:00;;;;;;;224.85;59.92;;;;;;;;;;4853730;29;20046;-84
2022/01/26 07:59:28;;;;;;;222.32;61.08;;;;;;;;;;4855325;29;20061;-83
2022/01/26 08:01:54;;;;;;;224.05;60.55;;;;;;;;;;4854226;29;20105;-84
2022/01/26 08:04:21;;;;;;;215.40;60.95;;;;;;;;;;4852921;29;20057;-83
2022/01/26 08:06:48;;;;;;;226.55;61.55;;;;;;;;;;4837122;29;20116;-83
2022/01/26 08:09:15;;;;;;;224.70;60.30;;;;;;;;;;4854482;29;20102;-84
2022/01/26 08:11:41;;;;;;;220.35;61.00;;;;;;;;;;4854221;29;20066;-83
2022/01/26 08:14:08;;;;;;;221.38;60.38;;;;;;;;;;4855332;29;20053;-83
2022/01/26 08:16:36;;;;;;;237.00;63.90;;;;;;;;;;4853899;29;20114;-83
2022/01/26 08:19:03;;;;;;;250.87;64.47;;;;;;;;;;4853362;29;20114;-83
2022/01/26 08:21:29;;;;;;;221.35;60.72;;;;;;;;;;4853718;29;20073;-83
2022/01/26 08:24:02;;;;;;;222.30;65.30;;;;;;;;;;4856572;29;20090;-83
2022/01/26 08:26:40;;;;;;;222.57;63.13;;;;;;;;;;4858538;29;20053;-83
2022/01/26 08:29:13;;;;;;;247.75;64.07;;;;;;;;;;4858324;29;20126;-82
2022/01/26 08:31:40;;;;;;;218.13;63.47;;;;;;;;;;4856202;29;20061;-82
2022/01/26 08:34:07;;;;;;;224.90;63.45;;;;;;;;;;4856120;29;20053;-82
2022/01/26 08:36:33;;;;;;;227.48;64.40;;;;;;;;;;4857083;29;20473;-83
2022/01/26 08:39:00;;;;;;;220.55;63.45;;;;;;;;;;4857763;29;20118;-82
2022/01/26 08:41:28;;;;;;;217.30;64.32;;;;;;;;;;4858508;29;20130;-82
2022/01/26 08:43:55;;;;;;;225.10;62.85;;;;;;;;;;4857064;29;20057;-82
2022/01/26 08:46:22;;;;;;;231.38;68.63;;;;;;;;;;4855742;29;20046;-82
2022/01/26 08:48:49;;;;;;;238.15;67.28;;;;;;;;;;4857538;29;20049;-82
2022/01/26 08:51:20;;;;;;;240.85;66.55;;;;;;;;;;4855011;29;20507;-83
2022/01/26 08:53:47;;;;;;;233.50;64.60;;;;;;;;;;4841840;29;20526;-83
2022/01/26 08:56:14;;;;;;;227.07;64.28;;;;;;;;;;4859203;29;20046;-83
2022/01/26 08:58:40;;;;;;;218.20;63.60;;;;;;;;;;4856024;29;20105;-83
2022/01/26 09:01:07;;;;;;;219.43;63.47;;;;;;;;;;4855648;29;20114;-82
2022/01/26 09:03:39;;;;;;;215.15;63.90;;;;;;;;;;4855775;29;20056;-83
2022/01/26 09:06:07;;;;;;;218.27;64.97;;;;;;;;;;4856984;29;20068;-82
2022/01/26 09:08:41;;;;;;;220.93;64.68;;;;;;;;;;4857434;29;20140;-83
2022/01/26 09:11:09;;;;;;;216.02;64.45;;;;;;;;;;4858046;29;20077;-82
2022/01/26 09:13:36;;;;;;;196.85;64.50;;;;;;;;;;4856006;29;20430;-82
2022/01/26 09:16:06;;;;;;;214.23;66.40;;;;;;;;;;4855666;29;20105;-82
2022/01/26 09:21:05;;;;;;;214.20;67.43;;;;;;;;;;4855742;29;20062;-81
2022/01/26 09:23:32;;;;;;;209.10;62.33;;;;;;;;;;4858026;29;20578;-82
2022/01/26 09:25:59;;;;;;;211.80;62.40;;;;;;;;;;4856356;29;20518;-82
2022/01/26 09:28:26;;;;;;;207.38;64.53;;;;;;;;;;4856462;29;20128;-82
2022/01/26 09:30:53;;;;;;;206.73;61.78;;;;;;;;;;4855963;29;20084;-80
2022/01/26 09:33:19;;;;;;;206.73;62.20;;;;;;;;;;4854600;29;20049;-80
2022/01/26 09:35:47;;;;;;;196.45;59.67;;;;;;;;;;4856072;29;20106;-82
2022/01/26 09:38:13;;;;;;;199.80;60.78;;;;;;;;;;4858175;29;20109;-81
2022/01/26 09:40:40;;;;;;;196.32;59.42;;;;;;;;;;4854410;29;20057;-82
2022/01/26 09:43:07;;;;;;;197.75;60.28;;;;;;;;;;4854708;29;20049;-80
2022/01/26 09:45:36;;;;;;;181.50;60.30;;;;;;;;;;4855574;29;20073;-81
2022/01/26 09:48:04;;;;;;;185.50;58.28;;;;;;;;;;4856431;29;20042;-82
2022/01/26 09:50:44;;;;;;;177.98;57.15;;;;;;;;;;4856142;29;20046;-82
2022/01/26 09:53:16;;;;;;;183.10;55.83;;;;;;;;;;4857696;29;20438;-81
2022/01/26 09:55:43;;;;;;;172.65;55.60;;;;;;;;;;4855200;29;20169;-82
2022/01/26 09:58:10;;;;;;;166.88;53.97;;;;;;;;;;4855177;29;20042;-80
2022/01/26 10:00:37;;;;;;;173.18;55.00;;;;;;;;;;4854596;29;20122;-80
2022/01/26 10:03:06;;;;;;;170.80;55.35;;;;;;;;;;4855043;29;20054;-82
2022/01/26 10:05:49;;;;;;;164.77;52.92;;;;;;;;;;4840064;29;20045;-82
2022/01/26 10:08:49;;;;;;;157.18;53.22;;;;;;;;;;4839528;29;20053;-82
2022/01/26 10:19:06;;;;;;;160.48;55.53;;;;;;;;;;4855105;29;20057;-80
2022/01/26 10:21:43;;;;;;;161.95;56.30;;;;;;;;;;4854542;29;20045;-82
2022/01/26 10:24:11;;;;;;;156.40;52.78;;;;;;;;;;4854254;29;20110;-81
2022/01/26 10:26:37;;;;;;;159.23;54.40;;;;;;;;;;4856221;29;20050;-83
2022/01/26 10:29:04;;;;;;;148.02;51.85;;;;;;;;;;4855843;29;20053;-82
2022/01/26 10:31:34;;;;;;;147.98;52.53;;;;;;;;;;4837855;29;20111;-82
2022/01/26 10:34:13;;;;;;;154.55;53.08;;;;;;;;;;4853967;29;20049;-80
2022/01/26 10:36:45;;;;;;;152.55;51.70;;;;;;;;;;4854717;29;20050;-82
2022/01/26 10:39:23;;;;;;;158.13;53.00;;;;;;;;;;4854078;29;20042;-81
2022/01/26 10:41:53;;;;;;;139.73;51.85;;;;;;;;;;4840043;29;20052;-82
2022/01/26 10:44:37;;;;;;;154.95;52.47;;;;;;;;;;4856371;29;20045;-82
2022/01/26 10:47:06;;;;;;;159.77;53.67;;;;;;;;;;4856157;29;20057;-82
2022/01/26 10:53:01;;;;;;;144.52;50.97;;;;;;;;;;4853931;29;20073;-82
2022/01/26 10:55:08;;;;;;;149.05;51.58;;;;;;;;;;4842137;29;20056;-82
2022/01/26 10:57:35;;;;;;;142.05;51.08;;;;;;;;;;4854232;29;20053;-82
2022/01/26 11:00:05;;;;;;;151.43;52.38;;;;;;;;;;4853691;29;20058;-82
2022/01/26 11:02:34;;;;;;;139.82;50.60;;;;;;;;;;4856236;29;20085;-82
2022/01/26 11:05:01;;;;;;;138.02;49.08;;;;;;;;;;4855692;29;20549;-82
2022/01/26 11:07:36;;;;;;;136.57;51.00;;;;;;;;;;4853738;29;20435;-83
2022/01/26 11:10:06;;;;;;;124.57;47.75;;;;;;;;;;4837461;29;20037;-82
2022/01/26 11:12:33;;;;;;;132.63;50.67;;;;;;;;;;4853935;29;20154;-83
2022/01/26 11:15:08;;;;;;;127.75;48.53;;;;;;;;;;4837981;29;20057;-82
2022/01/26 11:17:42;;;;;;;135.55;50.63;;;;;;;;;;4855864;29;20058;-83
2022/01/26 11:20:20;;;;;;;130.18;47.78;;;;;;;;;;4855992;29;20045;-83
2022/01/26 11:22:51;;;;;;;135.90;50.40;;;;;;;;;;4855275;29;20057;-83
2022/01/26 11:25:19;;;;;;;131.90;49.88;;;;;;;;;;4854698;29;20049;-83
2022/01/26 11:27:45;;;;;;;128.63;48.88;;;;;;;;;;4853572;29;20058;-83
2022/01/26 11:30:32;;;;;;;125.18;48.95;;;;;;;;;;4853676;29;20045;-83
2022/01/26 11:33:01;;;;;;;123.93;46.88;;;;;;;;;;4840458;29;20591;-83
2022/01/26 11:35:32;;;;;;;122.32;47.13;;;;;;;;;;4855811;29;20085;-82
2022/01/26 11:38:51;;;;;;;129.30;47.53;;;;;;;;;;4854811;29;20054;-83
2022/01/26 11:46:36;;;;;;;115.00;45.08;;;;;;;;;;4853695;29;20053;-83
2022/01/26 11:49:07;;;;;;;112.68;45.92;;;;;;;;;;4853618;29;20053;-83
2022/01/26 11:51:45;;;;;;;114.43;45.75;;;;;;;;;;4853752;29;20049;-83
2022/01/26 11:54:15;;;;;;;122.83;45.43;;;;;;;;;;4854483;29;20046;-83
2022/01/26 11:56:57;;;;;;;116.85;47.20;;;;;;;;;;4855583;29;20407;-83
2022/01/26 11:59:25;;;;;;;113.68;46.08;;;;;;;;;;4856343;29;20177;-82
2022/01/26 12:02:02;;;;;;;117.70;48.85;;;;;;;;;;4857451;29;20058;-82
2022/01/26 12:04:35;;;;;;;112.75;45.42;;;;;;;;;;4858308;29;20460;-81
2022/01/26 12:07:17;;;;;;;109.90;44.75;;;;;;;;;;4857207;29;20464;-81
2022/01/26 12:09:44;;;;;;;110.97;44.83;;;;;;;;;;4856886;29;20530;-81
2022/01/26 12:12:21;;;;;;;105.20;45.22;;;;;;;;;;4856405;29;20053;-81
2022/01/26 12:14:58;;;;;;;110.05;44.50;;;;;;;;;;4842763;29;20050;-84
2022/01/26 12:17:29;;;;;;;109.47;44.08;;;;;;;;;;4856194;29;20453;-82
2022/01/26 12:35:00;;;;;;;105.60;44.70;;;;;;;;;;4856121;29;20045;-82
2022/01/26 12:45:26;;;;;;;101.22;44.45;;;;;;;;;;4856476;29;20048;-81
2022/01/26 12:47:55;;;;;;;101.05;44.33;;;;;;;;;;4842418;29;20148;-82
2022/01/26 12:50:27;;;;;;;101.22;44.97;;;;;;;;;;4857986;29;20046;-82
2022/01/26 12:52:56;;;;;;;104.18;45.60;;;;;;;;;;4857529;29;20045;-81
2022/01/26 12:55:26;;;;;;;103.32;43.85;;;;;;;;;;4855168;29;20045;-81
2022/01/26 12:57:54;;;;;;;98.05;42.17;;;;;;;;;;4856325;29;20075;-82
2022/01/26 13:00:24;;;;;;;102.57;44.95;;;;;;;;;;4855721;29;20045;-82
2022/01/26 13:02:52;;;;;;;98.72;42.70;;;;;;;;;;4841484;29;20049;-82
2022/01/26 13:05:26;;;;;;;98.13;43.67;;;;;;;;;;4855190;29;20061;-82
2022/01/26 13:08:03;;;;;;;99.13;42.30;;;;;;;;;;4857820;29;20057;-84
2022/01/26 13:10:31;;;;;;;97.07;42.72;;;;;;;;;;4842033;29;20106;-83
2022/01/26 13:13:21;;;;;;;95.25;41.60;;;;;;;;;;4856064;29;20069;-83
2022/01/26 13:15:55;;;;;;;99.80;42.08;;;;;;;;;;4858136;29;20165;-83
2022/01/26 13:18:43;;;;;;;97.78;42.75;;;;;;;;;;4856145;29;20056;-84
2022/01/26 13:24:29;;;;;;;98.47;43.25;;;;;;;;;;4842802;29;20102;-83
2022/01/26 13:33:33;;;;;;;91.97;40.38;;;;;;;;;;4800433;29;20532;-83
2022/01/26 13:38:44;;;;;;;90.00;41.35;;;;;;;;;;4801220;29;20078;-84
2022/01/26 13:59:33;;;;;;;84.35;38.50;;;;;;;;;;4799738;29;20055;-84
2022/01/26 14:02:00;;;;;;;85.40;40.53;;;;;;;;;;4818422;29;20054;-84
2022/01/26 14:04:27;;;;;;;88.40;39.80;;;;;;;;;;4818311;29;20050;-85
2022/01/26 14:06:54;;;;;;;84.40;39.40;;;;;;;;;;4817699;29;20096;-85
2022/01/26 14:09:20;;;;;;;87.15;40.35;;;;;;;;;;4825820;29;20105;-85
2022/01/26 14:11:48;;;;;;;87.80;40.55;;;;;;;;;;4839972;29;20083;-84
2022/01/26 14:14:23;;;;;;;87.63;40.53;;;;;;;;;;4858002;29;20086;-84
2022/01/26 14:16:59;;;;;;;87.00;40.17;;;;;;;;;;4858176;29;20278;-85
2022/01/26 14:19:36;;;;;;;91.32;39.92;;;;;;;;;;4861478;29;20129;-85
2022/01/26 14:24:53;;;;;;;87.25;40.55;;;;;;;;;;4854935;29;20460;-84
2022/01/26 14:27:23;;;;;;;89.38;39.85;;;;;;;;;;4854603;29;20053;-84
2022/01/26 14:51:55;;;;;;;85.75;38.53;;;;;;;;;;4825465;29;20055;-85
2022/01/26 15:58:50;;;;;;;85.57;41.85;;;;;;;;;;4862785;29;20512;-83
2022/01/26 17:12:23;;;;;;;108.25;45.97;;;;;;;;;;4864983;29;20045;-82
2022/01/26 18:38:54;;;;;;;151.82;56.65;;;;;;;;;;4832376;29;20109;-82
2022/01/26 18:49:10;;;;;;;146.80;57.50;;;;;;;;;;4856171;29;20114;-82
2022/01/26 18:49:39;;;;;;;159.10;59.25;;;;;;;;;;4853675;29;20045;-82
2022/01/26 18:52:07;;;;;;;147.20;51.38;;;;;;;;;;4847195;29;20081;-81
2022/01/26 18:54:36;;;;;;;136.82;47.17;;;;;;;;;;4844189;29;20053;-81
2022/01/26 18:57:09;;;;;;;129.13;46.70;;;;;;;;;;4843468;29;20046;-81
2022/01/26 18:59:37;;;;;;;129.02;45.35;;;;;;;;;;4842259;29;20098;-81
2022/01/26 19:02:05;;;;;;;132.23;48.22;;;;;;;;;;4842393;29;20874;-81
2022/01/26 19:04:50;;;;;;;145.48;50.00;;;;;;;;;;4852111;29;20061;-81
2022/01/26 19:07:17;;;;;;;153.43;55.75;;;;;;;;;;4847753;29;20129;-83
2022/01/26 19:09:48;;;;;;;171.13;58.58;;;;;;;;;;4847886;29;20117;-81
2022/01/26 19:12:16;;;;;;;159.98;55.00;;;;;;;;;;4840376;29;20407;-82
2022/01/26 19:14:59;;;;;;;154.05;51.13;;;;;;;;;;4846951;29;20553;-82
2022/01/26 19:17:34;;;;;;;151.75;49.78;;;;;;;;;;4852320;29;20049;-82
2022/01/26 19:20:22;;;;;;;149.38;48.65;;;;;;;;;;4845126;29;20111;-81
2022/01/26 19:23:03;;;;;;;162.65;49.17;;;;;;;;;;4852421;29;20046;-81
2022/01/26 19:25:39;;;;;;;149.68;48.20;;;;;;;;;;4850206;29;20049;-80
2022/01/26 19:28:18;;;;;;;137.70;45.72;;;;;;;;;;4852560;29;20053;-82
2022/01/26 19:44:40;;;;;;;139.00;44.63;;;;;;;;;;4852055;29;20523;-82
2022/01/26 19:52:29;;;;;;;138.27;43.97;;;;;;;;;;4813326;29;20058;-82
2022/01/26 19:54:56;;;;;;;157.45;47.95;;;;;;;;;;4808682;29;20145;-82
2022/01/26 19:57:23;;;;;;;151.65;47.10;;;;;;;;;;4812840;29;20055;-82
2022/01/26 19:59:49;;;;;;;147.65;47.67;;;;;;;;;;4791959;29;20062;-82
2022/01/26 20:02:17;;;;;;;150.77;47.92;;;;;;;;;;4812274;29;20042;-80
2022/01/26 20:04:45;;;;;;;145.52;46.72;;;;;;;;;;4809171;29;20042;-82
2022/01/26 20:07:21;;;;;;;154.40;49.30;;;;;;;;;;4809322;29;20061;-83
2022/01/26 20:09:55;;;;;;;162.85;49.28;;;;;;;;;;4809240;29;20049;-82
2022/01/26 20:15:01;;;;;;;145.80;46.92;;;;;;;;;;4807526;29;20054;-82
2022/01/26 20:17:27;;;;;;;149.52;47.78;;;;;;;;;;4809634;29;20072;-82
2022/01/26 20:19:54;;;;;;;163.82;53.47;;;;;;;;;;4812597;29;20046;-81
2022/01/26 20:22:21;;;;;;;204.98;64.18;;;;;;;;;;4802799;29;20660;-82
2022/01/26 20:24:48;;;;;;;225.48;82.32;;;;;;;;;;4797693;29;20050;-80
2022/01/26 20:27:18;;;;;;;264.90;98.72;;;;;;;;;;4810781;29;20051;-80
2022/01/26 20:29:50;;;;;;;195.73;65.55;;;;;;;;;;4827825;29;20057;-81
2022/01/26 20:32:16;;;;;;;201.27;67.20;;;;;;;;;;4839436;29;20050;-82
2022/01/26 20:34:46;;;;;;;184.85;60.10;;;;;;;;;;4825610;29;20423;-81
2022/01/26 20:37:13;;;;;;;190.85;63.00;;;;;;;;;;4843435;29;20053;-83
2022/01/26 20:39:39;;;;;;;189.30;66.97;;;;;;;;;;4848164;29;20057;-80
2022/01/26 20:42:07;;;;;;;189.48;67.25;;;;;;;;;;4843160;29;20054;-82
2022/01/26 20:44:33;;;;;;;186.95;63.53;;;;;;;;;;4842867;29;20496;-83
2022/01/26 20:47:00;;;;;;;178.60;56.90;;;;;;;;;;4844321;29;20582;-83
2022/01/26 20:49:27;;;;;;;189.00;66.28;;;;;;;;;;4843415;29;20081;-82
2022/01/26 20:51:53;;;;;;;184.00;61.30;;;;;;;;;;4845919;29;20049;-82
2022/01/26 20:54:20;;;;;;;177.82;56.88;;;;;;;;;;4842845;29;20317;-83
2022/01/26 20:56:47;;;;;;;190.05;59.63;;;;;;;;;;4843129;29;20060;-82
2022/01/26 20:59:14;;;;;;;184.50;58.25;;;;;;;;;;4821739;29;20579;-81
2022/01/26 21:01:40;;;;;;;185.50;55.28;;;;;;;;;;4844105;29;20049;-81
2022/01/26 21:04:07;;;;;;;168.60;53.47;;;;;;;;;;4844130;29;20050;-81
2022/01/26 21:06:34;;;;;;;176.43;54.88;;;;;;;;;;4843452;29;20129;-80
2022/01/26 21:09:08;;;;;;;178.90;56.17;;;;;;;;;;4845436;29;20144;-82
2022/01/26 21:11:35;;;;;;;167.43;54.55;;;;;;;;;;4843614;29;20480;-82
2022/01/26 21:14:02;;;;;;;168.63;56.92;;;;;;;;;;4844322;29;20053;-83
2022/01/26 21:16:29;;;;;;;170.50;55.58;;;;;;;;;;4844807;29;20049;-81
2022/01/26 21:18:57;;;;;;;167.65;54.15;;;;;;;;;;4838875;29;20069;-81
2022/01/26 21:21:26;;;;;;;182.23;55.47;;;;;;;;;;4837937;29;20142;-81
2022/01/26 21:23:54;;;;;;;169.55;53.65;;;;;;;;;;4840600;29;20081;-82
2022/01/26 21:26:22;;;;;;;173.70;54.63;;;;;;;;;;4838156;29;20050;-82
2022/01/26 21:28:49;;;;;;;173.65;55.15;;;;;;;;;;4842567;29;20077;-82
2022/01/26 21:31:16;;;;;;;160.73;50.92;;;;;;;;;;4856059;29;20053;-82
2022/01/26 21:33:45;;;;;;;172.82;54.55;;;;;;;;;;4856529;29;20089;-81
2022/01/26 21:36:13;;;;;;;162.82;50.78;;;;;;;;;;4856233;29;20058;-80
2022/01/26 21:38:42;;;;;;;155.32;51.42;;;;;;;;;;4856566;29;20109;-82
2022/01/26 21:41:10;;;;;;;168.13;52.25;;;;;;;;;;4856932;29;20117;-82
2022/01/26 21:43:37;;;;;;;172.77;54.70;;;;;;;;;;4855487;29;20050;-82
2022/01/26 21:46:04;;;;;;;224.70;74.28;;;;;;;;;;4855084;29;20042;-81
2022/01/26 21:48:31;;;;;;;541.97;192.48;;;;;;;;;;4855256;29;20049;-82
2022/01/26 21:50:58;;;;;;;468.05;145.93;;;;;;;;;;4854955;29;20061;-81
2022/01/26 21:53:25;;;;;;;532.00;170.82;;;;;;;;;;4857853;29;20049;-81
2022/01/26 21:55:57;;;;;;;477.40;161.30;;;;;;;;;;4856808;29;20067;-81
2022/01/26 21:58:24;;;;;;;305.70;76.03;;;;;;;;;;4854913;29;20451;-81
2022/01/26 22:00:51;;;;;;;239.25;68.40;;;;;;;;;;4854870;29;20491;-82
2022/01/26 22:03:18;;;;;;;296.30;73.07;;;;;;;;;;4855060;29;20124;-82
2022/01/26 22:05:45;;;;;;;307.63;77.63;;;;;;;;;;4856175;29;20064;-82
2022/01/26 22:08:13;;;;;;;285.08;77.18;;;;;;;;;;4855236;29;20053;-83
2022/01/26 22:10:40;;;;;;;293.00;81.10;;;;;;;;;;4855346;29;20056;-82
2022/01/26 22:13:06;;;;;;;288.48;82.82;;;;;;;;;;4855077;29;20426;-82
2022/01/26 22:15:33;;;;;;;330.10;86.30;;;;;;;;;;4857392;29;20050;-82
2022/01/26 22:18:00;;;;;;;298.40;80.93;;;;;;;;;;4839009;29;20069;-82
2022/01/26 22:20:27;;;;;;;291.77;77.90;;;;;;;;;;4857181;29;20419;-82
2022/01/26 22:22:53;;;;;;;322.58;84.20;;;;;;;;;;4856568;29;20132;-82
2022/01/26 22:25:26;;;;;;;285.63;82.95;;;;;;;;;;4838761;29;20499;-81
2022/01/26 22:27:57;;;;;;;255.40;76.22;;;;;;;;;;4855277;29;20046;-82
2022/01/26 22:30:32;;;;;;;323.20;85.33;;;;;;;;;;4854847;29;20105;-82
2022/01/26 22:33:01;;;;;;;273.40;83.32;;;;;;;;;;4855522;29;20360;-81
2022/01/26 22:35:29;;;;;;;252.55;76.68;;;;;;;;;;4856795;29;20111;-81
2022/01/26 22:37:59;;;;;;;279.88;87.20;;;;;;;;;;4854746;29;20078;-81
2022/01/26 22:40:29;;;;;;;396.55;114.32;;;;;;;;;;4853854;29;20053;-80
2022/01/26 22:43:13;;;;;;;344.80;105.65;;;;;;;;;;4854368;29;20080;-82
2022/01/26 22:45:43;;;;;;;537.42;161.10;;;;;;;;;;4854818;29;20057;-81
2022/01/26 22:48:19;;;;;;;457.50;122.43;;;;;;;;;;4854015;29;20073;-81
2022/01/26 22:50:48;;;;;;;319.83;90.97;;;;;;;;;;4855844;29;20152;-82
2022/01/26 22:53:15;;;;;;;;;;;;;;;;;;4857284;29;20049;-82
2022/01/26 22:55:42;;;;;;;384.27;126.10;;;;;;;;;;4854491;29;19927;-82
2022/01/26 22:58:08;;;;;;;315.13;97.35;;;;;;;;;;4853806;29;20053;-81
2022/01/26 23:00:44;;;;;;;290.05;81.78;;;;;;;;;;4854019;29;20054;-82
2022/01/26 23:03:10;;;;;;;280.42;83.93;;;;;;;;;;4854676;29;20050;-80
2022/01/26 23:08:23;;;;;;;283.48;82.10;;;;;;;;;;4857047;29;20049;-82
2022/01/26 23:10:50;;;;;;;420.20;138.93;;;;;;;;;;4855383;29;20053;-82
2022/01/26 23:13:17;;;;;;;288.75;98.38;;;;;;;;;;4854650;29;20045;-81
2022/01/26 23:15:43;;;;;;;315.80;102.72;;;;;;;;;;4854968;29;20105;-82
2022/01/26 23:18:10;;;;;;;312.20;101.78;;;;;;;;;;4854492;29;20058;-82
2022/01/26 23:20:57;;;;;;;301.92;99.88;;;;;;;;;;4840606;29;20045;-82
2022/01/26 23:23:44;;;;;;;274.88;84.70;;;;;;;;;;4855873;29;20053;-79
